sensor_id;sensor_type;location;lat;lon;timestamp;temperature;humidity
31639;DHT22;18248;51.522;7.020;2023-02-13T00:01:48;10.10;99.90
31639;DHT22;18248;51.522;7.020;2023-02-13T00:04:46;10.00;99.90
31639;DHT22;18248;51.522;7.020;2023-02-13T00:07:45;10.00;99.90
31639;DHT22;18248;51.522;7.020;2023-02-13T00:10:44;10.10;99.90
31639;DHT22;18248;51.522;7.020;2023-02-13T00:13:42;10.00;99.90
31639;DHT22;18248;51.522;7.020;2023-02-13T00:16:43;10.00;99.90
31639;DHT22;18248;51.522;7.020;2023-02-13T00:19:42;10.00;99.90
31639;DHT22;18248;51.522;7.020;2023-02-13T00:22:41;9.90;99.90
31639;DHT22;18248;51.522;7.020;2023-02-13T00:25:39;9.90;99.90
31639;DHT22;18248;51.522;7.020;2023-02-13T00:28:38;9.90;99.90
31639;DHT22;18248;51.522;7.020;2023-02-13T00:31:37;9.90;99.90
31639;DHT22;18248;51.522;7.020;2023-02-13T00:34:36;9.90;99.90
31639;DHT22;18248;51.522;7.020;2023-02-13T00:37:36;9.90;99.90
31639;DHT22;18248;51.522;7.020;2023-02-13T00:40:36;9.90;99.90
31639;DHT22;18248;51.522;7.020;2023-02-13T00:43:35;9.90;99.90
31639;DHT22;18248;51.522;7.020;2023-02-13T00:46:33;9.90;99.90
31639;DHT22;18248;51.522;7.020;2023-02-13T00:49:32;9.90;99.90
31639;DHT22;18248;51.522;7.020;2023-02-13T00:52:31;9.90;99.90
31639;DHT22;18248;51.522;7.020;2023-02-13T00:55:29;9.90;99.90
31639;DHT22;18248;51.522;7.020;2023-02-13T00:58:28;9.90;99.90
31639;DHT22;18248;51.522;7.020;2023-02-13T01:01:26;9.90;99.90
31639;DHT22;18248;51.522;7.020;2023-02-13T01:04:25;9.90;99.90
31639;DHT22;18248;51.522;7.020;2023-02-13T01:07:23;9.90;99.90
31639;DHT22;18248;51.522;7.020;2023-02-13T01:10:22;9.90;99.90
31639;DHT22;18248;51.522;7.020;2023-02-13T01:13:21;10.00;99.90
31639;DHT22;18248;51.522;7.020;2023-02-13T01:16:20;9.90;99.90
31639;DHT22;18248;51.522;7.020;2023-02-13T01:19:19;10.00;99.90
31639;DHT22;18248;51.522;7.020;2023-02-13T01:22:17;9.90;99.90
31639;DHT22;18248;51.522;7.020;2023-02-13T01:25:16;9.90;99.90
31639;DHT22;18248;51.522;7.020;2023-02-13T01:28:14;9.90;99.90
31639;DHT22;18248;51.522;7.020;2023-02-13T01:31:13;9.90;99.90
31639;DHT22;18248;51.522;7.020;2023-02-13T01:34:12;9.90;99.90
31639;DHT22;18248;51.522;7.020;2023-02-13T01:37:10;9.90;99.90
31639;DHT22;18248;51.522;7.020;2023-02-13T01:40:12;9.90;99.90
31639;DHT22;18248;51.522;7.020;2023-02-13T01:43:12;9.90;99.90
31639;DHT22;18248;51.522;7.020;2023-02-13T01:46:14;9.90;99.90
31639;DHT22;18248;51.522;7.020;2023-02-13T01:49:17;9.90;99.90
31639;DHT22;18248;51.522;7.020;2023-02-13T01:52:18;10.00;99.90
31639;DHT22;18248;51.522;7.020;2023-02-13T01:55:17;9.90;99.90
31639;DHT22;18248;51.522;7.020;2023-02-13T01:58:20;9.90;99.90
31639;DHT22;18248;51.522;7.020;2023-02-13T02:01:21;9.90;99.90
31639;DHT22;18248;51.522;7.020;2023-02-13T02:04:40;9.90;99.90
31639;DHT22;18248;51.522;7.020;2023-02-13T02:07:40;9.90;99.90
31639;DHT22;18248;51.522;7.020;2023-02-13T02:10:39;9.80;99.90
31639;DHT22;18248;51.522;7.020;2023-02-13T02:13:38;9.80;99.90
31639;DHT22;18248;51.522;7.020;2023-02-13T02:16:38;9.80;99.90
31639;DHT22;18248;51.522;7.020;2023-02-13T02:20:02;9.80;99.90
31639;DHT22;18248;51.522;7.020;2023-02-13T02:26:40;9.80;99.90
31639;DHT22;18248;51.522;7.020;2023-02-13T02:29:57;9.80;99.90
31639;DHT22;18248;51.522;7.020;2023-02-13T02:36:19;9.70;99.90
31639;DHT22;18248;51.522;7.020;2023-02-13T02:39:42;9.70;99.90
31639;DHT22;18248;51.522;7.020;2023-02-13T02:42:59;9.70;99.90
31639;DHT22;18248;51.522;7.020;2023-02-13T02:46:20;9.60;99.90
31639;DHT22;18248;51.522;7.020;2023-02-13T02:49:21;9.60;99.90
31639;DHT22;18248;51.522;7.020;2023-02-13T02:52:56;9.60;99.90
31639;DHT22;18248;51.522;7.020;2023-02-13T02:59:15;9.60;99.90
31639;DHT22;18248;51.522;7.020;2023-02-13T03:02:34;9.60;99.90
31639;DHT22;18248;51.522;7.020;2023-02-13T03:05:54;9.60;99.90
31639;DHT22;18248;51.522;7.020;2023-02-13T03:09:13;9.60;99.90
31639;DHT22;18248;51.522;7.020;2023-02-13T03:12:44;9.60;99.90
31639;DHT22;18248;51.522;7.020;2023-02-13T03:16:04;9.60;99.90
31639;DHT22;18248;51.522;7.020;2023-02-13T03:19:34;9.50;99.90
31639;DHT22;18248;51.522;7.020;2023-02-13T03:23:15;9.50;99.90
31639;DHT22;18248;51.522;7.020;2023-02-13T03:26:31;9.50;99.90
31639;DHT22;18248;51.522;7.020;2023-02-13T03:29:50;9.50;99.90
31639;DHT22;18248;51.522;7.020;2023-02-13T03:36:32;9.40;99.90
31639;DHT22;18248;51.522;7.020;2023-02-13T03:40:04;9.40;99.90
31639;DHT22;18248;51.522;7.020;2023-02-13T03:43:12;9.40;99.90
31639;DHT22;18248;51.522;7.020;2023-02-13T03:46:14;9.30;99.90
31639;DHT22;18248;51.522;7.020;2023-02-13T03:49:32;9.30;99.90
31639;DHT22;18248;51.522;7.020;2023-02-13T03:53:07;9.30;99.90
31639;DHT22;18248;51.522;7.020;2023-02-13T03:56:07;9.20;99.90
31639;DHT22;18248;51.522;7.020;2023-02-13T03:59:29;9.20;99.90
31639;DHT22;18248;51.522;7.020;2023-02-13T04:02:33;9.20;99.90
31639;DHT22;18248;51.522;7.020;2023-02-13T04:05:37;9.20;99.90
31639;DHT22;18248;51.522;7.020;2023-02-13T04:08:37;9.20;99.90
31639;DHT22;18248;51.522;7.020;2023-02-13T04:14:58;9.10;99.90
31639;DHT22;18248;51.522;7.020;2023-02-13T04:18:15;9.10;99.90
31639;DHT22;18248;51.522;7.020;2023-02-13T04:21:14;9.10;99.90
31639;DHT22;18248;51.522;7.020;2023-02-13T04:24:13;9.10;99.90
31639;DHT22;18248;51.522;7.020;2023-02-13T04:27:14;9.10;99.90
31639;DHT22;18248;51.522;7.020;2023-02-13T04:30:13;9.10;99.90
31639;DHT22;18248;51.522;7.020;2023-02-13T04:33:12;9.10;99.90
31639;DHT22;18248;51.522;7.020;2023-02-13T04:36:10;9.10;99.90
31639;DHT22;18248;51.522;7.020;2023-02-13T04:39:10;9.10;99.90
31639;DHT22;18248;51.522;7.020;2023-02-13T04:42:09;9.00;99.90
31639;DHT22;18248;51.522;7.020;2023-02-13T04:45:08;9.00;99.90
31639;DHT22;18248;51.522;7.020;2023-02-13T04:48:07;9.00;99.90
31639;DHT22;18248;51.522;7.020;2023-02-13T04:51:06;9.00;99.90
31639;DHT22;18248;51.522;7.020;2023-02-13T04:54:05;9.00;99.90
31639;DHT22;18248;51.522;7.020;2023-02-13T04:57:03;9.00;99.90
31639;DHT22;18248;51.522;7.020;2023-02-13T05:00:04;9.00;99.90
31639;DHT22;18248;51.522;7.020;2023-02-13T05:03:05;9.00;99.90
31639;DHT22;18248;51.522;7.020;2023-02-13T05:06:04;9.00;99.90
31639;DHT22;18248;51.522;7.020;2023-02-13T05:09:03;9.00;99.90
31639;DHT22;18248;51.522;7.020;2023-02-13T05:12:01;9.00;99.90
31639;DHT22;18248;51.522;7.020;2023-02-13T05:15:00;9.00;99.90
31639;DHT22;18248;51.522;7.020;2023-02-13T05:17:59;9.00;99.90
31639;DHT22;18248;51.522;7.020;2023-02-13T05:20:58;9.00;99.90
31639;DHT22;18248;51.522;7.020;2023-02-13T05:24:15;9.00;99.90
31639;DHT22;18248;51.522;7.020;2023-02-13T05:27:14;9.00;99.90
31639;DHT22;18248;51.522;7.020;2023-02-13T05:30:13;9.00;99.90
31639;DHT22;18248;51.522;7.020;2023-02-13T05:33:11;9.00;99.90
31639;DHT22;18248;51.522;7.020;2023-02-13T05:36:10;9.00;99.90
31639;DHT22;18248;51.522;7.020;2023-02-13T05:39:08;9.00;99.90
31639;DHT22;18248;51.522;7.020;2023-02-13T05:42:07;9.00;99.90
31639;DHT22;18248;51.522;7.020;2023-02-13T05:45:07;9.00;99.90
31639;DHT22;18248;51.522;7.020;2023-02-13T05:48:06;9.00;99.90
31639;DHT22;18248;51.522;7.020;2023-02-13T05:51:05;9.00;99.90
31639;DHT22;18248;51.522;7.020;2023-02-13T05:54:04;9.00;99.90
31639;DHT22;18248;51.522;7.020;2023-02-13T05:57:03;9.00;99.90
31639;DHT22;18248;51.522;7.020;2023-02-13T06:00:03;9.00;99.90
31639;DHT22;18248;51.522;7.020;2023-02-13T06:03:02;9.10;99.90
31639;DHT22;18248;51.522;7.020;2023-02-13T06:06:00;9.00;99.90
31639;DHT22;18248;51.522;7.020;2023-02-13T06:08:59;9.00;99.90
31639;DHT22;18248;51.522;7.020;2023-02-13T06:11:58;9.00;99.90
31639;DHT22;18248;51.522;7.020;2023-02-13T06:14:56;9.00;99.90
31639;DHT22;18248;51.522;7.020;2023-02-13T06:17:55;9.00;99.90
31639;DHT22;18248;51.522;7.020;2023-02-13T06:20:53;8.90;99.90
31639;DHT22;18248;51.522;7.020;2023-02-13T06:23:52;8.90;99.90
31639;DHT22;18248;51.522;7.020;2023-02-13T06:26:51;8.80;99.90
31639;DHT22;18248;51.522;7.020;2023-02-13T06:29:49;8.80;99.90
31639;DHT22;18248;51.522;7.020;2023-02-13T06:32:48;8.80;99.90
31639;DHT22;18248;51.522;7.020;2023-02-13T06:35:46;8.70;99.90
31639;DHT22;18248;51.522;7.020;2023-02-13T06:38:45;8.70;99.90
31639;DHT22;18248;51.522;7.020;2023-02-13T06:41:43;8.60;99.90
31639;DHT22;18248;51.522;7.020;2023-02-13T06:44:42;8.60;99.90
31639;DHT22;18248;51.522;7.020;2023-02-13T06:47:42;8.50;99.90
31639;DHT22;18248;51.522;7.020;2023-02-13T06:50:40;8.50;99.90
31639;DHT22;18248;51.522;7.020;2023-02-13T06:53:41;8.40;99.90
31639;DHT22;18248;51.522;7.020;2023-02-13T06:56:39;8.40;99.90
31639;DHT22;18248;51.522;7.020;2023-02-13T06:59:39;8.30;99.90
31639;DHT22;18248;51.522;7.020;2023-02-13T07:02:40;8.20;99.90
31639;DHT22;18248;51.522;7.020;2023-02-13T07:05:40;8.20;99.90
31639;DHT22;18248;51.522;7.020;2023-02-13T07:08:39;8.10;99.90
31639;DHT22;18248;51.522;7.020;2023-02-13T07:11:38;8.10;99.90
31639;DHT22;18248;51.522;7.020;2023-02-13T07:14:36;8.00;99.90
31639;DHT22;18248;51.522;7.020;2023-02-13T07:17:35;8.00;99.90
31639;DHT22;18248;51.522;7.020;2023-02-13T07:20:35;7.90;99.90
31639;DHT22;18248;51.522;7.020;2023-02-13T07:23:34;7.80;99.90
31639;DHT22;18248;51.522;7.020;2023-02-13T07:26:32;7.80;99.90
31639;DHT22;18248;51.522;7.020;2023-02-13T07:29:31;7.70;99.90
31639;DHT22;18248;51.522;7.020;2023-02-13T07:32:29;7.60;99.90
31639;DHT22;18248;51.522;7.020;2023-02-13T07:35:28;7.60;99.90
31639;DHT22;18248;51.522;7.020;2023-02-13T07:38:29;7.60;99.90
31639;DHT22;18248;51.522;7.020;2023-02-13T07:41:28;7.50;99.90
31639;DHT22;18248;51.522;7.020;2023-02-13T07:44:27;7.50;99.90
31639;DHT22;18248;51.522;7.020;2023-02-13T07:47:26;7.40;99.90
31639;DHT22;18248;51.522;7.020;2023-02-13T07:50:25;7.40;99.90
31639;DHT22;18248;51.522;7.020;2023-02-13T07:53:23;7.50;99.90
31639;DHT22;18248;51.522;7.020;2023-02-13T07:56:22;7.50;99.90
31639;DHT22;18248;51.522;7.020;2023-02-13T07:59:20;7.50;99.90
31639;DHT22;18248;51.522;7.020;2023-02-13T08:02:19;7.50;99.90
31639;DHT22;18248;51.522;7.020;2023-02-13T08:05:17;7.60;99.90
31639;DHT22;18248;51.522;7.020;2023-02-13T08:08:17;7.70;99.90
31639;DHT22;18248;51.522;7.020;2023-02-13T08:11:34;7.70;99.90
31639;DHT22;18248;51.522;7.020;2023-02-13T08:14:52;7.70;99.90
31639;DHT22;18248;51.522;7.020;2023-02-13T08:17:53;7.80;99.90
31639;DHT22;18248;51.522;7.020;2023-02-13T08:20:52;7.80;99.90
31639;DHT22;18248;51.522;7.020;2023-02-13T08:23:50;7.90;99.90
31639;DHT22;18248;51.522;7.020;2023-02-13T08:26:49;8.00;99.90
31639;DHT22;18248;51.522;7.020;2023-02-13T08:29:48;8.00;99.90
31639;DHT22;18248;51.522;7.020;2023-02-13T08:32:48;8.10;99.90
31639;DHT22;18248;51.522;7.020;2023-02-13T08:35:48;8.20;99.90
31639;DHT22;18248;51.522;7.020;2023-02-13T08:38:46;8.20;99.90
31639;DHT22;18248;51.522;7.020;2023-02-13T08:41:45;8.30;99.90
31639;DHT22;18248;51.522;7.020;2023-02-13T08:44:44;8.40;99.90
31639;DHT22;18248;51.522;7.020;2023-02-13T08:47:42;8.40;99.90
31639;DHT22;18248;51.522;7.020;2023-02-13T08:50:41;8.50;99.90
31639;DHT22;18248;51.522;7.020;2023-02-13T08:53:40;8.60;99.90
31639;DHT22;18248;51.522;7.020;2023-02-13T08:56:41;8.60;99.90
31639;DHT22;18248;51.522;7.020;2023-02-13T08:59:40;8.70;99.90
31639;DHT22;18248;51.522;7.020;2023-02-13T09:02:39;8.70;99.90
31639;DHT22;18248;51.522;7.020;2023-02-13T09:05:38;8.80;99.90
31639;DHT22;18248;51.522;7.020;2023-02-13T09:08:38;8.90;99.90
31639;DHT22;18248;51.522;7.020;2023-02-13T09:11:36;8.90;99.90
31639;DHT22;18248;51.522;7.020;2023-02-13T09:14:35;8.90;99.90
31639;DHT22;18248;51.522;7.020;2023-02-13T09:17:37;9.00;99.90
31639;DHT22;18248;51.522;7.020;2023-02-13T09:20:36;9.00;99.90
31639;DHT22;18248;51.522;7.020;2023-02-13T09:23:37;9.10;99.90
31639;DHT22;18248;51.522;7.020;2023-02-13T09:26:37;9.10;99.90
31639;DHT22;18248;51.522;7.020;2023-02-13T09:29:35;9.20;99.90
31639;DHT22;18248;51.522;7.020;2023-02-13T09:32:36;9.20;99.90
31639;DHT22;18248;51.522;7.020;2023-02-13T09:35:37;9.30;99.90
31639;DHT22;18248;51.522;7.020;2023-02-13T09:38:39;9.30;99.90
31639;DHT22;18248;51.522;7.020;2023-02-13T09:41:41;9.40;99.90
31639;DHT22;18248;51.522;7.020;2023-02-13T09:44:43;9.40;99.90
31639;DHT22;18248;51.522;7.020;2023-02-13T09:47:43;9.50;99.90
31639;DHT22;18248;51.522;7.020;2023-02-13T09:50:42;9.50;99.90
31639;DHT22;18248;51.522;7.020;2023-02-13T09:53:49;9.60;99.90
31639;DHT22;18248;51.522;7.020;2023-02-13T10:00:28;9.70;99.90
31639;DHT22;18248;51.522;7.020;2023-02-13T10:03:34;9.80;99.90
31639;DHT22;18248;51.522;7.020;2023-02-13T10:06:42;10.00;99.90
31639;DHT22;18248;51.522;7.020;2023-02-13T10:10:22;10.20;99.90
31639;DHT22;18248;51.522;7.020;2023-02-13T10:13:51;10.30;99.90
31639;DHT22;18248;51.522;7.020;2023-02-13T10:16:58;10.50;99.90
31639;DHT22;18248;51.522;7.020;2023-02-13T10:23:45;10.80;99.90
31639;DHT22;18248;51.522;7.020;2023-02-13T10:26:46;11.10;99.90
31639;DHT22;18248;51.522;7.020;2023-02-13T10:29:50;11.20;99.90
31639;DHT22;18248;51.522;7.020;2023-02-13T10:33:16;11.40;99.90
31639;DHT22;18248;51.522;7.020;2023-02-13T10:36:26;11.60;99.90
31639;DHT22;18248;51.522;7.020;2023-02-13T10:39:29;11.70;99.90
31639;DHT22;18248;51.522;7.020;2023-02-13T10:42:44;11.90;99.90
31639;DHT22;18248;51.522;7.020;2023-02-13T10:53:26;12.40;99.90
31639;DHT22;18248;51.522;7.020;2023-02-13T10:56:05;12.60;99.90
31639;DHT22;18248;51.522;7.020;2023-02-13T11:05:22;13.00;99.90
31639;DHT22;18248;51.522;7.020;2023-02-13T11:08:25;13.20;99.90
31639;DHT22;18248;51.522;7.020;2023-02-13T11:11:41;13.30;99.90
31639;DHT22;18248;51.522;7.020;2023-02-13T11:14:53;13.40;99.90
31639;DHT22;18248;51.522;7.020;2023-02-13T11:17:54;13.40;99.90
31639;DHT22;18248;51.522;7.020;2023-02-13T11:21:07;13.50;99.90
31639;DHT22;18248;51.522;7.020;2023-02-13T11:24:16;13.60;99.90
31639;DHT22;18248;51.522;7.020;2023-02-13T11:27:23;13.70;99.90
31639;DHT22;18248;51.522;7.020;2023-02-13T11:30:36;14.00;99.90
31639;DHT22;18248;51.522;7.020;2023-02-13T11:33:35;14.10;99.90
31639;DHT22;18248;51.522;7.020;2023-02-13T11:36:34;14.10;99.90
31639;DHT22;18248;51.522;7.020;2023-02-13T11:39:33;14.30;99.90
31639;DHT22;18248;51.522;7.020;2023-02-13T11:42:34;14.40;99.90
31639;DHT22;18248;51.522;7.020;2023-02-13T11:45:34;14.30;99.90
31639;DHT22;18248;51.522;7.020;2023-02-13T11:48:33;14.40;99.90
31639;DHT22;18248;51.522;7.020;2023-02-13T11:51:43;14.40;99.90
31639;DHT22;18248;51.522;7.020;2023-02-13T11:54:43;14.60;99.90
31639;DHT22;18248;51.522;7.020;2023-02-13T11:57:41;14.80;99.90
31639;DHT22;18248;51.522;7.020;2023-02-13T12:07:29;15.00;99.90
31639;DHT22;18248;51.522;7.020;2023-02-13T12:10:31;15.10;99.90
31639;DHT22;18248;51.522;7.020;2023-02-13T12:13:37;15.20;99.90
31639;DHT22;18248;51.522;7.020;2023-02-13T12:19:41;15.50;99.90
31639;DHT22;18248;51.522;7.020;2023-02-13T12:32:56;15.60;99.90
31639;DHT22;18248;51.522;7.020;2023-02-13T12:42:48;15.80;99.90
31639;DHT22;18248;51.522;7.020;2023-02-13T12:46:25;15.90;99.90
31639;DHT22;18248;51.522;7.020;2023-02-13T12:52:59;16.00;99.90
31639;DHT22;18248;51.522;7.020;2023-02-13T12:56:37;16.00;99.90
31639;DHT22;18248;51.522;7.020;2023-02-13T13:10:38;16.20;99.90
31639;DHT22;18248;51.522;7.020;2023-02-13T13:26:46;16.50;99.90
31639;DHT22;18248;51.522;7.020;2023-02-13T13:30:17;16.60;99.90
31639;DHT22;18248;51.522;7.020;2023-02-13T13:33:22;16.70;99.90
31639;DHT22;18248;51.522;7.020;2023-02-13T13:36:33;16.80;99.90
31639;DHT22;18248;51.522;7.020;2023-02-13T13:43:26;17.00;99.90
31639;DHT22;18248;51.522;7.020;2023-02-13T13:46:38;17.10;99.90
31639;DHT22;18248;51.522;7.020;2023-02-13T13:53:06;17.10;99.90
31639;DHT22;18248;51.522;7.020;2023-02-13T13:56:06;17.20;99.90
31639;DHT22;18248;51.522;7.020;2023-02-13T13:59:19;17.10;99.90
31639;DHT22;18248;51.522;7.020;2023-02-13T14:05:29;17.10;99.90
31639;DHT22;18248;51.522;7.020;2023-02-13T14:11:40;17.30;99.90
31639;DHT22;18248;51.522;7.020;2023-02-13T14:14:43;17.30;99.90
31639;DHT22;18248;51.522;7.020;2023-02-13T14:23:49;17.10;99.90
31639;DHT22;18248;51.522;7.020;2023-02-13T14:26:55;17.10;99.90
31639;DHT22;18248;51.522;7.020;2023-02-13T14:29:54;17.00;99.90
31639;DHT22;18248;51.522;7.020;2023-02-13T14:32:53;16.90;99.90
31639;DHT22;18248;51.522;7.020;2023-02-13T14:36:06;16.90;99.90
31639;DHT22;18248;51.522;7.020;2023-02-13T14:39:28;16.90;99.90
31639;DHT22;18248;51.522;7.020;2023-02-13T14:42:28;16.80;99.90
31639;DHT22;18248;51.522;7.020;2023-02-13T14:45:32;16.80;99.90
31639;DHT22;18248;51.522;7.020;2023-02-13T14:52:02;16.80;99.90
31639;DHT22;18248;51.522;7.020;2023-02-13T14:55:06;16.90;99.90
31639;DHT22;18248;51.522;7.020;2023-02-13T14:58:19;16.90;99.90
31639;DHT22;18248;51.522;7.020;2023-02-13T15:01:28;17.10;99.90
31639;DHT22;18248;51.522;7.020;2023-02-13T15:04:39;17.20;99.90
31639;DHT22;18248;51.522;7.020;2023-02-13T15:07:48;17.20;99.90
31639;DHT22;18248;51.522;7.020;2023-02-13T15:10:50;17.10;99.90
31639;DHT22;18248;51.522;7.020;2023-02-13T15:13:49;17.10;99.90
31639;DHT22;18248;51.522;7.020;2023-02-13T15:17:03;16.90;99.90
31639;DHT22;18248;51.522;7.020;2023-02-13T15:20:22;16.70;99.90
31639;DHT22;18248;51.522;7.020;2023-02-13T15:23:25;16.60;99.90
31639;DHT22;18248;51.522;7.020;2023-02-13T15:26:25;16.50;99.90
31639;DHT22;18248;51.522;7.020;2023-02-13T15:29:26;16.40;99.90
31639;DHT22;18248;51.522;7.020;2023-02-13T15:32:33;16.30;99.90
31639;DHT22;18248;51.522;7.020;2023-02-13T15:35:34;16.20;99.90
31639;DHT22;18248;51.522;7.020;2023-02-13T15:38:38;16.10;99.90
31639;DHT22;18248;51.522;7.020;2023-02-13T15:41:39;16.00;99.90
31639;DHT22;18248;51.522;7.020;2023-02-13T15:44:39;15.90;99.90
31639;DHT22;18248;51.522;7.020;2023-02-13T15:47:38;15.80;99.90
31639;DHT22;18248;51.522;7.020;2023-02-13T15:50:40;15.80;99.90
31639;DHT22;18248;51.522;7.020;2023-02-13T15:53:59;15.60;99.90
31639;DHT22;18248;51.522;7.020;2023-02-13T15:57:00;15.50;99.90
31639;DHT22;18248;51.522;7.020;2023-02-13T16:00:00;15.40;99.90
31639;DHT22;18248;51.522;7.020;2023-02-13T16:03:02;15.40;99.90
31639;DHT22;18248;51.522;7.020;2023-02-13T16:06:03;15.30;99.90
31639;DHT22;18248;51.522;7.020;2023-02-13T16:09:03;15.20;99.90
31639;DHT22;18248;51.522;7.020;2023-02-13T16:12:15;15.10;99.90
31639;DHT22;18248;51.522;7.020;2023-02-13T16:15:17;15.00;99.90
31639;DHT22;18248;51.522;7.020;2023-02-13T16:18:18;14.80;99.90
31639;DHT22;18248;51.522;7.020;2023-02-13T16:21:22;14.70;99.90
31639;DHT22;18248;51.522;7.020;2023-02-13T16:24:23;14.60;99.90
31639;DHT22;18248;51.522;7.020;2023-02-13T16:27:27;14.50;99.90
31639;DHT22;18248;51.522;7.020;2023-02-13T16:30:30;14.40;99.90
31639;DHT22;18248;51.522;7.020;2023-02-13T16:33:34;14.30;99.90
31639;DHT22;18248;51.522;7.020;2023-02-13T16:36:35;14.20;99.90
31639;DHT22;18248;51.522;7.020;2023-02-13T16:39:35;14.20;99.90
31639;DHT22;18248;51.522;7.020;2023-02-13T16:42:33;14.10;99.90
31639;DHT22;18248;51.522;7.020;2023-02-13T16:45:32;13.90;99.90
31639;DHT22;18248;51.522;7.020;2023-02-13T16:48:30;13.90;99.90
31639;DHT22;18248;51.522;7.020;2023-02-13T16:54:47;13.60;99.90
31639;DHT22;18248;51.522;7.020;2023-02-13T16:57:46;13.60;99.90
31639;DHT22;18248;51.522;7.020;2023-02-13T17:00:49;13.50;99.90
31639;DHT22;18248;51.522;7.020;2023-02-13T17:03:47;13.40;99.90
31639;DHT22;18248;51.522;7.020;2023-02-13T17:06:46;13.30;99.90
31639;DHT22;18248;51.522;7.020;2023-02-13T17:09:51;13.30;99.90
31639;DHT22;18248;51.522;7.020;2023-02-13T17:12:50;13.10;99.90
31639;DHT22;18248;51.522;7.020;2023-02-13T17:15:50;13.10;99.90
31639;DHT22;18248;51.522;7.020;2023-02-13T17:18:49;13.00;99.90
31639;DHT22;18248;51.522;7.020;2023-02-13T17:21:49;13.00;99.90
31639;DHT22;18248;51.522;7.020;2023-02-13T17:24:50;12.80;99.90
31639;DHT22;18248;51.522;7.020;2023-02-13T17:27:53;12.70;99.90
31639;DHT22;18248;51.522;7.020;2023-02-13T17:30:55;12.70;99.90
31639;DHT22;18248;51.522;7.020;2023-02-13T17:33:54;12.60;99.90
31639;DHT22;18248;51.522;7.020;2023-02-13T17:36:52;12.50;99.90
31639;DHT22;18248;51.522;7.020;2023-02-13T17:39:52;12.50;99.90
31639;DHT22;18248;51.522;7.020;2023-02-13T17:42:54;12.40;99.90
31639;DHT22;18248;51.522;7.020;2023-02-13T17:45:53;12.30;99.90
31639;DHT22;18248;51.522;7.020;2023-02-13T17:48:52;12.20;99.90
31639;DHT22;18248;51.522;7.020;2023-02-13T17:51:50;12.10;99.90
31639;DHT22;18248;51.522;7.020;2023-02-13T17:54:49;12.10;99.90
31639;DHT22;18248;51.522;7.020;2023-02-13T17:57:48;12.00;99.90
31639;DHT22;18248;51.522;7.020;2023-02-13T18:00:47;11.90;99.90
31639;DHT22;18248;51.522;7.020;2023-02-13T18:03:48;11.90;99.90
31639;DHT22;18248;51.522;7.020;2023-02-13T18:06:50;11.80;99.90
31639;DHT22;18248;51.522;7.020;2023-02-13T18:09:49;11.70;99.90
31639;DHT22;18248;51.522;7.020;2023-02-13T18:12:48;11.60;99.90
31639;DHT22;18248;51.522;7.020;2023-02-13T18:15:47;11.60;99.90
31639;DHT22;18248;51.522;7.020;2023-02-13T18:18:46;11.50;99.90
31639;DHT22;18248;51.522;7.020;2023-02-13T18:21:44;11.40;99.90
31639;DHT22;18248;51.522;7.020;2023-02-13T18:24:43;11.40;99.90
31639;DHT22;18248;51.522;7.020;2023-02-13T18:27:41;11.30;99.90
31639;DHT22;18248;51.522;7.020;2023-02-13T18:30:41;11.20;99.90
31639;DHT22;18248;51.522;7.020;2023-02-13T18:33:40;11.10;99.90
31639;DHT22;18248;51.522;7.020;2023-02-13T18:36:38;11.10;99.90
31639;DHT22;18248;51.522;7.020;2023-02-13T18:39:37;11.00;99.90
31639;DHT22;18248;51.522;7.020;2023-02-13T18:42:36;11.00;99.90
31639;DHT22;18248;51.522;7.020;2023-02-13T18:45:36;10.90;99.90
31639;DHT22;18248;51.522;7.020;2023-02-13T18:48:35;10.80;99.90
31639;DHT22;18248;51.522;7.020;2023-02-13T18:51:34;10.70;99.90
31639;DHT22;18248;51.522;7.020;2023-02-13T18:54:33;10.70;99.90
31639;DHT22;18248;51.522;7.020;2023-02-13T18:57:31;10.60;99.90
31639;DHT22;18248;51.522;7.020;2023-02-13T19:00:30;10.50;99.90
31639;DHT22;18248;51.522;7.020;2023-02-13T19:03:29;10.40;99.90
31639;DHT22;18248;51.522;7.020;2023-02-13T19:06:28;10.40;99.90
31639;DHT22;18248;51.522;7.020;2023-02-13T19:09:27;10.30;99.90
31639;DHT22;18248;51.522;7.020;2023-02-13T19:12:25;10.20;99.90
31639;DHT22;18248;51.522;7.020;2023-02-13T19:15:24;10.20;99.90
31639;DHT22;18248;51.522;7.020;2023-02-13T19:18:23;10.10;99.90
31639;DHT22;18248;51.522;7.020;2023-02-13T19:21:23;10.10;99.90
31639;DHT22;18248;51.522;7.020;2023-02-13T19:24:22;10.00;99.90
31639;DHT22;18248;51.522;7.020;2023-02-13T19:27:21;10.00;99.90
31639;DHT22;18248;51.522;7.020;2023-02-13T19:30:19;10.00;99.90
31639;DHT22;18248;51.522;7.020;2023-02-13T19:33:21;9.90;99.90
31639;DHT22;18248;51.522;7.020;2023-02-13T19:36:22;9.90;99.90
31639;DHT22;18248;51.522;7.020;2023-02-13T19:39:21;9.90;99.90
31639;DHT22;18248;51.522;7.020;2023-02-13T19:42:20;9.80;99.90
31639;DHT22;18248;51.522;7.020;2023-02-13T19:45:21;9.70;99.90
31639;DHT22;18248;51.522;7.020;2023-02-13T19:48:20;9.70;99.90
31639;DHT22;18248;51.522;7.020;2023-02-13T19:51:21;9.60;99.90
31639;DHT22;18248;51.522;7.020;2023-02-13T19:54:19;9.60;99.90
31639;DHT22;18248;51.522;7.020;2023-02-13T19:57:20;9.50;99.90
31639;DHT22;18248;51.522;7.020;2023-02-13T20:00:19;9.40;99.90
31639;DHT22;18248;51.522;7.020;2023-02-13T20:03:18;9.30;99.90
31639;DHT22;18248;51.522;7.020;2023-02-13T20:06:20;9.20;99.90
31639;DHT22;18248;51.522;7.020;2023-02-13T20:09:21;9.20;99.90
31639;DHT22;18248;51.522;7.020;2023-02-13T20:12:20;9.10;99.90
31639;DHT22;18248;51.522;7.020;2023-02-13T20:15:21;9.00;99.90
31639;DHT22;18248;51.522;7.020;2023-02-13T20:18:20;8.90;99.90
31639;DHT22;18248;51.522;7.020;2023-02-13T20:21:19;8.80;99.90
31639;DHT22;18248;51.522;7.020;2023-02-13T20:24:18;8.80;99.90
31639;DHT22;18248;51.522;7.020;2023-02-13T20:27:17;8.70;99.90
31639;DHT22;18248;51.522;7.020;2023-02-13T20:30:15;8.60;99.90
31639;DHT22;18248;51.522;7.020;2023-02-13T20:33:14;8.50;99.90
31639;DHT22;18248;51.522;7.020;2023-02-13T20:36:18;8.40;99.90
31639;DHT22;18248;51.522;7.020;2023-02-13T20:39:17;8.30;99.90
31639;DHT22;18248;51.522;7.020;2023-02-13T20:42:16;8.20;99.90
31639;DHT22;18248;51.522;7.020;2023-02-13T20:45:14;8.10;99.90
31639;DHT22;18248;51.522;7.020;2023-02-13T20:48:14;8.10;99.90
31639;DHT22;18248;51.522;7.020;2023-02-13T20:51:14;8.00;99.90
31639;DHT22;18248;51.522;7.020;2023-02-13T20:54:12;8.00;99.90
31639;DHT22;18248;51.522;7.020;2023-02-13T20:57:11;8.00;99.90
31639;DHT22;18248;51.522;7.020;2023-02-13T21:00:10;7.90;99.90
31639;DHT22;18248;51.522;7.020;2023-02-13T21:03:10;7.80;99.90
31639;DHT22;18248;51.522;7.020;2023-02-13T21:06:10;7.80;99.90
31639;DHT22;18248;51.522;7.020;2023-02-13T21:09:11;7.70;99.90
31639;DHT22;18248;51.522;7.020;2023-02-13T21:12:09;7.70;99.90
31639;DHT22;18248;51.522;7.020;2023-02-13T21:15:09;7.60;99.90
31639;DHT22;18248;51.522;7.020;2023-02-13T21:18:08;7.60;99.90
31639;DHT22;18248;51.522;7.020;2023-02-13T21:21:07;7.50;99.90
31639;DHT22;18248;51.522;7.020;2023-02-13T21:24:08;7.50;99.90